• Join FlightAware (Why Join?)
  • Login
  • US Flag 
05:32AM EDT


 

Airport Tracker/Info


-or-


 

Live Flight TrackerFlight Track Log ✈ EGF4010 ✈ 23-Apr-2013 ✈ KFAR - KORD

Flight Track Log - Related Links

Times and Time Zones

All times are in EDT time to prevent confusion due to time zone crossing. See the EGF4010 flight status page for this flight to view local times or setup timezone preferences in your user account.

Time Position Orientation Groundspeed Altitude Reporting Facility
EDT Latitude Longitude Course Direction KTS MPH feet Rate Location/Type
07:24PM 46.8897 -96.8150 122° Southeast 175 201 2,600  Level Minneapolis Center
07:25PM 46.8300 -96.8083 176° South 201 231 5,700 2,880 Climbing Minneapolis Center
07:26PM 46.6910 -96.7302 123° Southeast  Level FlightAware Approximate
07:26PM 46.7608 -96.7775 163° South 270 311 8,600  Level Minneapolis Center
07:27PM 46.6309 -96.5979 123° Southeast  Level FlightAware Approximate
07:27PM 46.7111 -96.6772 126° Southeast 292 336 11,400  Level Minneapolis Center
07:28PM 46.5736 -96.4632 121° Southeast  Level FlightAware Approximate
07:28PM 46.6617 -96.5728 125° Southeast 322 371 13,400  Level Minneapolis Center
07:29PM 46.5166 -96.3283 122° Southeast  Level FlightAware Approximate
07:29PM 46.6075 -96.4581 124° Southeast 352 405 14,800  Level Minneapolis Center
07:30PM 46.5394 -96.3122 124° Southeast 390 449 16,100 1,380 Climbing Minneapolis Center
07:31PM 46.4742 -96.1722 124° Southeast 402 463 17,700 1,740 Climbing Minneapolis Center
07:32PM 46.4125 -96.0347 123° Southeast 393 452 19,700 1,740 Climbing Minneapolis Center
07:33PM 46.3494 -95.8997 124° Southeast 400 460 21,300 1,500 Climbing Minneapolis Center
07:34PM 46.2858 -95.7656 124° Southeast 408 470 22,800 1,380 Climbing Minneapolis Center
07:35PM 46.2139 -95.6308 128° Southeast 419 482 24,200 1,380 Climbing Minneapolis Center
07:36PM 46.1458 -95.4917 125° Southeast 423 487 25,700 1,320 Climbing Minneapolis Center
07:37PM 46.0814 -95.3469 123° Southeast 427 491 27,000 1,140 Climbing Minneapolis Center
07:38PM 46.0014 -95.1742 124° Southeast 431 496 28,100 1,020 Climbing Minneapolis Center
07:39PM 45.9375 -95.0350 123° Southeast 437 503 29,100 900 Climbing Minneapolis Center
07:40PM 45.8689 -94.8881 124° Southeast 442 509 30,000 780 Climbing Minneapolis Center
07:42PM 45.8136 -94.7686 124° Southeast 448 516 30,800 840 Climbing Minneapolis Center
07:43PM 45.7431 -94.6164 124° Southeast 458 527 31,800 1,380 Climbing Minneapolis Center
07:44PM 45.6414 -94.4017 124° Southeast 466 536 33,700 1,500 Climbing Minneapolis Center
07:45PM 45.5689 -94.2497 124° Southeast 466 536 34,900 1,260 Climbing Minneapolis Center
07:46PM 45.4981 -94.0983 124° Southeast 461 531 36,300 960 Climbing Minneapolis Center
07:47PM 45.4258 -93.9481 124° Southeast 463 533 37,000 300 Climbing Minneapolis Center
07:48PM 45.3506 -93.7958 125° Southeast 470 541 37,000  Level Minneapolis Center
07:49PM 45.2756 -93.6403 124° Southeast 476 548 37,000  Level Minneapolis Center
07:50PM 45.1864 -93.4578 125° Southeast 471 542 37,000  Level Minneapolis Center
07:51PM 45.1156 -93.3036 123° Southeast 467 537 37,000  Level Minneapolis Center
07:52PM 45.0483 -93.1431 121° Southeast 470 541 37,000  Level Minneapolis Center
07:53PM 44.9817 -92.9836 121° Southeast 468 539 37,000  Level Minneapolis Center
07:54PM 44.9147 -92.8250 121° Southeast 466 536 37,000  Level Minneapolis Center
07:55PM 44.8347 -92.6344 121° Southeast 468 539 37,000  Level Minneapolis Center
07:56PM 44.7672 -92.4767 121° Southeast 468 539 37,000  Level Minneapolis Center
07:57PM 44.6983 -92.3183 121° Southeast 472 543 37,000  Level Minneapolis Center
07:58PM 44.6164 -92.1294 121° Southeast 472 543 37,000  Level Minneapolis Center
07:59PM 44.5494 -91.9717 121° Southeast 472 543 37,000  Level Minneapolis Center
08:00PM 44.4794 -91.8131 122° Southeast 476 548 37,000  Level Minneapolis Center
08:01PM 44.3983 -91.6275 121° Southeast 470 541 37,000  Level Minneapolis Center
08:02PM 44.3292 -91.4728 122° Southeast 470 541 37,000 -300 Level Minneapolis Center
08:03PM 44.2611 -91.3189 122° Southeast 468 539 36,500 -780 Descending Minneapolis Center
08:05PM 44.1914 -91.1642 122° Southeast 469 540 35,500 -960 Descending Minneapolis Center
08:06PM 44.1208 -91.0067 122° Southeast 473 544 34,600 -960 Descending Minneapolis Center
08:07PM 44.0522 -90.8536 122° Southeast 473 544 33,600 -960 Descending Minneapolis Center
08:08PM 43.9847 -90.7033 122° Southeast 465 535 32,700 -1,020 Descending Minneapolis Center
08:09PM 43.8983 -90.5142 122° Southeast 477 549 31,500 -960 Descending Minneapolis Center
08:10PM 43.8269 -90.3592 123° Southeast 478 550 30,800 -840 Descending Minneapolis Center
08:11PM 43.7553 -90.2042 123° Southeast 479 551 29,900 -960 Descending Minneapolis Center
08:12PM 43.6822 -90.0464 123° Southeast 486 559 28,900 -1,200 Descending Minneapolis Center
08:13PM 43.6108 -89.8928 123° Southeast 478 550 27,500 -1,800 Descending Minneapolis Center
08:14PM 43.5336 -89.7503 127° Southeast 468 539 25,300 -2,160 Descending Chicago Center
08:15PM 43.4381 -89.6439 141° Southeast 444 511 23,200 -2,160 Descending Chicago Center
08:16PM 43.3283 -89.5333 144° Southeast 424 488 20,900 -2,100 Descending Chicago Center
08:17PM 43.2392 -89.4392 142° Southeast 411 473 18,900 -1,920 Descending Chicago Center
08:18PM 43.1517 -89.3492 143° Southeast 398 458 17,000 -1,920 Descending Chicago Center
08:19PM 43.0672 -89.2553 141° Southeast 393 452 15,000 -1,740 Descending Chicago Center
08:20PM 42.9889 -89.1689 141° Southeast 369 425 13,500 -960 Descending Chicago Center
08:21PM 42.8961 -89.0681 141° Southeast 366 421 13,100 -540 Descending Chicago Center
08:22PM 42.8183 -88.9806 140° Southeast 365 420 12,400 -960 Descending Chicago Center
08:23PM 42.7403 -88.8947 141° Southeast 362 417 11,200 -1,020 Descending Chicago Center
08:24PM 42.6644 -88.8142 142° Southeast 348 400 10,300 -540 Descending Chicago Center
08:25PM 42.5869 -88.7314 142° Southeast 355 409 10,100 -120 Descending Chicago Center
08:26PM 42.5119 -88.6497 141° Southeast 347 399 10,100  Level Chicago Center
08:27PM 42.4217 -88.5514 141° Southeast 356 410 10,100 -60 Level Chicago Center
08:28PM 42.3569 -88.4500 131° Southeast 364 419 10,000 -60 Descending Chicago Center
08:29PM 42.3131 -88.3386 118° Southeast 349 402 10,000 -420 Level Chicago Center
08:30PM 42.2614 -88.2592 131° Southeast 290 334 9,200 -900 Descending Chicago Center
08:31PM 42.2108 -88.1739 129° Southeast 290 334 8,200 -1,020 Descending Chicago Center
08:32PM 42.1458 -88.0889 136° Southeast 267 307 7,100 -600 Descending Chicago Center
08:33PM 42.0925 -88.0164 135° Southeast 276 318 7,000 -60 Descending Chicago Center
08:34PM 42.0833 -87.9167 97° East 294 338 7,000 -300 Level Chicago TRACON
08:35PM 42.0667 -87.8000 101° East 284 327 6,400 -1,140 Descending Chicago TRACON
08:36PM 42.0667 -87.7000 90° East 268 308 4,700 -1,260 Descending Chicago TRACON
08:37PM 42.0667 -87.6000 90° East 278 320 4,000 -420 Descending Chicago TRACON
08:38PM 42.0500 -87.5167 105° East 253 291 4,000  Level Chicago TRACON
08:39PM 41.9833 -87.5167 180° South 210 242 4,000  Level Chicago TRACON
08:40PM 41.9833 -87.5833 270° West 160 184 4,000  Level Chicago TRACON
08:41PM 41.9833 -87.6333 270° West 160 184 4,000  Level Chicago TRACON